createdAt,value
2023-03-21T00:06:19.757Z,1.00
2023-03-21T00:16:29.836Z,0.47
2023-03-21T00:26:36.368Z,0.40
2023-03-21T00:36:40.084Z,0.70
2023-03-21T00:46:57.414Z,1.17
2023-03-21T00:57:08.740Z,0.70
2023-03-21T01:07:13.630Z,0.60
2023-03-21T01:17:17.252Z,0.73
2023-03-21T01:27:22.440Z,0.87
2023-03-21T01:37:26.591Z,0.60
2023-03-21T01:47:31.607Z,0.43
2023-03-21T01:57:47.374Z,0.70
2023-03-21T02:08:01.928Z,0.60
2023-03-21T02:18:14.089Z,0.47
2023-03-21T02:28:23.304Z,0.53
2023-03-21T02:38:33.761Z,0.63
2023-03-21T02:48:50.257Z,1.10
2023-03-21T02:58:55.907Z,0.60
2023-03-21T03:09:22.823Z,0.40
2023-03-21T03:19:32.713Z,0.90
2023-03-21T03:29:41.742Z,0.50
2023-03-21T03:39:51.372Z,0.73
2023-03-21T03:50:03.761Z,0.30
2023-03-21T04:00:13.085Z,0.60
2023-03-21T04:10:17.103Z,0.70
2023-03-21T04:20:34.131Z,0.70
2023-03-21T04:30:43.392Z,1.20
2023-03-21T04:40:54.406Z,1.47
2023-03-21T04:50:57.968Z,0.87
2023-03-21T05:01:05.842Z,0.80
2023-03-21T05:11:09.781Z,0.67
2023-03-21T05:21:18.233Z,1.60
2023-03-21T05:31:22.556Z,0.73
2023-03-21T05:41:27.509Z,1.43
2023-03-21T05:51:31.090Z,0.83
2023-03-21T06:01:36.058Z,0.67
2023-03-21T06:11:44.731Z,1.03
2023-03-21T06:21:50.155Z,1.13
2023-03-21T06:31:53.937Z,1.03
2023-03-21T06:41:59.236Z,1.17
2023-03-21T06:52:03.071Z,2.33
2023-03-21T07:02:08.429Z,1.03
2023-03-21T07:12:12.206Z,1.80
2023-03-21T07:22:17.210Z,1.73
2023-03-21T07:32:20.994Z,1.40
2023-03-21T07:42:26.138Z,1.03
2023-03-21T07:52:29.760Z,1.17
2023-03-21T08:02:34.864Z,1.43
2023-03-21T08:12:38.606Z,1.10
2023-03-21T08:22:44.577Z,1.17
2023-03-21T08:32:48.726Z,1.40
2023-03-21T08:42:53.756Z,1.20
2023-03-21T08:52:57.499Z,2.10
2023-03-21T09:03:05.239Z,1.85
2023-03-21T09:13:09.297Z,1.05
2023-03-21T09:23:15.759Z,1.30
2023-03-21T09:33:21.224Z,1.17
2023-03-21T09:43:40.668Z,1.30
2023-03-21T09:53:48.766Z,1.42
2023-03-21T10:03:54.745Z,2.08
2023-03-21T10:14:03.273Z,1.30
2023-03-21T10:24:12.697Z,1.57
2023-03-21T10:34:21.241Z,1.53
2023-03-21T10:44:31.815Z,1.95
2023-03-21T10:54:36.707Z,1.63
2023-03-21T11:04:44.707Z,1.60
2023-03-21T11:14:52.135Z,1.80
2023-03-21T11:25:01.174Z,1.55
2023-03-21T11:35:09.243Z,2.03
2023-03-21T11:45:18.513Z,2.23
2023-03-21T11:55:42.031Z,2.17
2023-03-21T12:05:54.663Z,2.73
2023-03-21T12:16:10.507Z,1.60
2023-03-21T12:26:24.223Z,2.03
2023-03-21T12:36:49.107Z,2.03
2023-03-21T12:47:00.406Z,1.33
2023-03-21T12:57:10.216Z,1.13
2023-03-21T13:07:20.027Z,1.00
2023-03-21T13:17:33.641Z,1.37
2023-03-21T13:27:41.019Z,0.97
2023-03-21T13:37:55.509Z,1.23
2023-03-21T13:48:04.295Z,1.27
2023-03-21T13:58:33.730Z,1.50
2023-03-21T14:08:42.126Z,1.00
2023-03-21T14:18:54.222Z,1.10
2023-03-21T14:29:00.814Z,2.90
2023-03-21T14:39:11.892Z,1.57
2023-03-21T14:49:23.552Z,1.43
2023-03-21T14:59:32.702Z,1.20
2023-03-21T15:09:37.813Z,1.30
2023-03-21T15:19:43.570Z,1.00
2023-03-21T15:29:54.772Z,1.60
2023-03-21T15:40:11.305Z,0.97
2023-03-21T15:50:27.999Z,1.70
2023-03-21T16:00:40.083Z,4.17
2023-03-21T16:10:45.574Z,1.77
2023-03-21T16:20:50.128Z,1.60
2023-03-21T16:30:55.234Z,1.80
2023-03-21T16:41:00.841Z,1.80
2023-03-21T16:51:06.319Z,1.63
2023-03-21T17:01:16.042Z,1.83
2023-03-21T17:11:23.733Z,2.07
2023-03-21T17:21:30.276Z,2.13
2023-03-21T17:31:38.024Z,2.40
2023-03-21T17:41:42.081Z,3.77
2023-03-21T17:51:47.229Z,2.83
2023-03-21T18:01:50.885Z,2.53
2023-03-21T18:11:56.030Z,2.17
2023-03-21T18:21:59.690Z,2.43
2023-03-21T18:32:07.547Z,2.13
2023-03-21T18:42:17.738Z,2.20
2023-03-21T18:52:27.198Z,2.60
2023-03-21T19:02:30.934Z,2.50
2023-03-21T19:12:36.001Z,2.97
2023-03-21T19:22:39.633Z,2.37
2023-03-21T19:32:45.245Z,3.27
2023-03-21T19:42:49.013Z,2.33
2023-03-21T19:52:54.221Z,2.97
2023-03-21T20:02:58.120Z,4.00
2023-03-21T20:13:03.171Z,3.23
2023-03-21T20:23:08.548Z,3.10
2023-03-21T20:33:15.622Z,2.50
2023-03-21T20:44:12.216Z,3.60
2023-03-21T20:53:45.332Z,3.50
2023-03-21T21:03:49.477Z,4.90
2023-03-21T21:13:55.928Z,5.40
2023-03-21T21:23:59.802Z,3.33
2023-03-21T21:34:06.145Z,3.20
2023-03-21T21:44:10.957Z,3.83
2023-03-21T21:54:18.149Z,3.23
2023-03-21T22:04:27.410Z,3.77
2023-03-21T22:14:32.329Z,3.47
2023-03-21T22:24:37.357Z,3.03
2023-03-21T22:34:42.483Z,2.33
2023-03-21T22:44:49.623Z,2.23
2023-03-21T22:54:54.739Z,3.53
2023-03-21T23:04:58.321Z,2.90
2023-03-21T23:15:03.369Z,2.83
2023-03-21T23:25:08.554Z,1.83
2023-03-21T23:35:13.943Z,2.73
2023-03-21T23:45:17.834Z,2.17
2023-03-21T23:55:22.717Z,2.60
